createdAt,value
2022-12-28T00:03:54.311Z,2.83
2022-12-28T00:07:57.345Z,2.80
2022-12-28T00:12:02.086Z,2.76
2022-12-28T00:16:09.500Z,2.74
2022-12-28T00:20:13.884Z,2.68
2022-12-28T00:24:20.228Z,2.62
2022-12-28T00:28:24.903Z,2.61
2022-12-28T00:32:28.293Z,2.57
2022-12-28T00:37:09.902Z,2.53
2022-12-28T00:40:55.166Z,2.47
2022-12-28T00:45:00.137Z,2.45
2022-12-28T00:49:04.304Z,2.43
2022-12-28T00:53:07.585Z,2.39
2022-12-28T00:57:10.567Z,2.36
2022-12-28T01:01:18.377Z,2.33
2022-12-28T01:05:21.638Z,2.34
2022-12-28T01:09:24.995Z,2.32
2022-12-28T01:13:28.091Z,2.38
2022-12-28T01:17:32.838Z,2.41
2022-12-28T01:21:37.379Z,2.40
2022-12-28T01:25:40.961Z,2.35
2022-12-28T01:29:43.974Z,2.33
2022-12-28T01:33:49.303Z,2.34
2022-12-28T01:37:52.341Z,2.30
2022-12-28T01:41:55.737Z,2.28
2022-12-28T01:45:58.929Z,2.21
2022-12-28T01:50:09.224Z,2.22
2022-12-28T01:54:12.994Z,2.15
2022-12-28T01:58:20.652Z,2.17
2022-12-28T02:02:24.370Z,2.14
2022-12-28T02:06:29.407Z,2.10
2022-12-28T02:10:42.996Z,2.05
2022-12-28T02:14:49.317Z,2.01
2022-12-28T02:18:53.934Z,1.88
2022-12-28T02:23:24.652Z,1.94
2022-12-28T02:27:39.392Z,1.92
2022-12-28T02:31:51.424Z,1.91
2022-12-28T02:36:00.005Z,1.84
2022-12-28T02:40:07.290Z,1.91
2022-12-28T02:44:11.400Z,1.91
2022-12-28T02:48:33.225Z,1.90
2022-12-28T02:53:07.268Z,1.90
2022-12-28T02:57:24.808Z,1.88
2022-12-28T03:01:51.337Z,1.90
2022-12-28T03:06:30.628Z,1.89
2022-12-28T03:10:43.215Z,1.92
2022-12-28T03:14:48.325Z,1.98
2022-12-28T03:19:18.179Z,2.01
2022-12-28T03:23:41.537Z,1.99
2022-12-28T03:28:03.308Z,1.95
2022-12-28T03:32:07.711Z,1.94
2022-12-28T03:36:17.075Z,1.85
2022-12-28T03:40:31.432Z,1.85
2022-12-28T03:44:37.130Z,1.82
2022-12-28T03:48:40.854Z,1.79
2022-12-28T03:52:44.541Z,1.78
2022-12-28T03:56:51.245Z,1.76
2022-12-28T04:00:54.513Z,1.76
2022-12-28T04:04:57.919Z,1.75
2022-12-28T04:09:01.270Z,1.72
2022-12-28T04:13:05.736Z,1.71
2022-12-28T04:17:09.059Z,1.66
2022-12-28T04:21:13.084Z,1.67
2022-12-28T04:25:16.495Z,1.65
2022-12-28T04:29:21.272Z,1.65
2022-12-28T04:33:24.941Z,1.64
2022-12-28T04:37:28.144Z,1.61
2022-12-28T04:41:31.396Z,1.61
2022-12-28T04:45:36.166Z,1.63
2022-12-28T04:49:39.456Z,1.63
2022-12-28T04:53:43.726Z,1.65
2022-12-28T04:57:47.509Z,1.64
2022-12-28T05:01:52.070Z,1.64
2022-12-28T05:05:55.270Z,1.62
2022-12-28T05:09:58.525Z,1.61
2022-12-28T05:14:01.810Z,1.64
2022-12-28T05:18:06.597Z,1.68
2022-12-28T05:22:39.085Z,1.73
2022-12-28T05:26:44.125Z,1.73
2022-12-28T05:30:47.227Z,1.73
2022-12-28T05:34:52.037Z,1.70
2022-12-28T05:38:56.093Z,1.65
2022-12-28T05:42:59.535Z,1.54
2022-12-28T05:47:02.805Z,1.52
2022-12-28T05:51:10.027Z,1.48
2022-12-28T05:55:12.999Z,1.45
2022-12-28T05:59:16.200Z,1.41
2022-12-28T06:03:19.739Z,1.42
2022-12-28T06:07:24.672Z,1.49
2022-12-28T06:11:29.417Z,1.56
2022-12-28T06:15:32.589Z,1.65
2022-12-28T06:19:35.754Z,1.76
2022-12-28T06:23:40.326Z,1.86
2022-12-28T06:27:43.458Z,1.93
2022-12-28T06:31:49.453Z,1.99
2022-12-28T06:35:52.845Z,2.03
2022-12-28T06:39:57.567Z,2.07
2022-12-28T06:44:01.462Z,2.11
2022-12-28T06:48:04.753Z,2.13
2022-12-28T06:52:08.115Z,2.17
2022-12-28T06:56:18.774Z,2.23
2022-12-28T07:00:22.243Z,2.24
2022-12-28T07:04:25.283Z,2.30
2022-12-28T07:08:28.583Z,2.32
2022-12-28T07:12:33.103Z,2.38
2022-12-28T07:20:40.673Z,2.47
2022-12-28T07:24:44.056Z,2.52
2022-12-28T07:28:50.603Z,2.57
2022-12-28T07:32:53.892Z,2.59
2022-12-28T07:36:56.916Z,2.64
2022-12-28T07:41:03.543Z,2.68
2022-12-28T07:45:11.180Z,2.71
2022-12-28T07:49:14.482Z,2.73
2022-12-28T07:53:22.071Z,2.74
2022-12-28T07:57:25.684Z,2.71
2022-12-28T08:01:32.172Z,2.67
2022-12-28T08:05:35.449Z,2.69
2022-12-28T08:09:38.931Z,2.70
2022-12-28T08:13:43.830Z,2.75
2022-12-28T08:17:48.372Z,2.89
2022-12-28T08:21:51.706Z,3.16
2022-12-28T08:25:54.742Z,3.46
2022-12-28T08:29:59.076Z,3.83
2022-12-28T08:34:06.943Z,4.17
2022-12-28T08:38:10.243Z,4.42
2022-12-28T08:42:13.448Z,4.61
2022-12-28T08:46:18.779Z,4.76
2022-12-28T08:50:29.541Z,4.85
2022-12-28T08:54:34.856Z,4.89
2022-12-28T08:58:38.510Z,4.96
2022-12-28T09:02:41.744Z,5.16
2022-12-28T09:06:46.983Z,5.44
2022-12-28T09:10:50.374Z,5.72
2022-12-28T09:14:53.505Z,5.96
2022-12-28T09:18:58.678Z,6.11
2022-12-28T09:23:03.513Z,6.21
2022-12-28T09:27:06.598Z,6.28
2022-12-28T09:31:11.740Z,6.35
2022-12-28T09:35:14.950Z,6.52
2022-12-28T09:39:23.456Z,6.65
2022-12-28T09:43:28.367Z,6.78
2022-12-28T09:47:39.929Z,6.93
2022-12-28T09:51:52.197Z,7.04
2022-12-28T09:56:01.434Z,7.22
2022-12-28T10:00:06.375Z,7.50
2022-12-28T10:04:12.467Z,7.83
2022-12-28T10:08:17.791Z,8.24
2022-12-28T10:12:24.932Z,8.65
2022-12-28T10:16:31.847Z,9.02
2022-12-28T10:20:35.622Z,9.37
2022-12-28T10:24:41.751Z,9.61
2022-12-28T10:28:50.527Z,9.72
2022-12-28T10:33:02.141Z,9.78
2022-12-28T10:37:13.999Z,9.82
2022-12-28T10:41:20.053Z,9.86
2022-12-28T10:45:28.784Z,9.92
2022-12-28T10:49:37.593Z,9.91
2022-12-28T10:53:44.291Z,9.89
2022-12-28T10:58:27.044Z,9.82
2022-12-28T11:02:29.360Z,9.79
2022-12-28T11:06:34.672Z,9.82
2022-12-28T11:10:38.059Z,9.86
2022-12-28T11:14:41.587Z,9.94
2022-12-28T11:18:46.290Z,10.05
2022-12-28T11:22:49.782Z,10.15
2022-12-28T11:32:44.176Z,10.20
2022-12-28T11:36:49.804Z,10.14
2022-12-28T11:40:54.403Z,10.13
2022-12-28T11:44:59.141Z,10.20
2022-12-28T11:49:03.645Z,10.34
2022-12-28T11:57:35.397Z,10.73
2022-12-28T12:01:49.191Z,10.93
2022-12-28T12:05:54.511Z,11.02
2022-12-28T12:10:34.107Z,11.15
2022-12-28T12:14:43.915Z,11.28
2022-12-28T12:18:51.893Z,11.39
2022-12-28T12:23:00.757Z,11.43
2022-12-28T12:27:13.742Z,11.35
2022-12-28T12:31:27.132Z,11.21
2022-12-28T12:35:36.321Z,11.00
2022-12-28T12:40:17.281Z,10.76
2022-12-28T12:44:34.762Z,10.55
2022-12-28T12:49:01.909Z,10.40
2022-12-28T12:53:15.910Z,10.34
2022-12-28T12:57:26.798Z,10.30
2022-12-28T13:01:38.277Z,10.30
2022-12-28T13:05:46.279Z,10.31
2022-12-28T13:09:50.331Z,10.31
2022-12-28T13:13:55.495Z,10.31
2022-12-28T13:18:42.875Z,10.36
2022-12-28T13:22:32.888Z,10.39
2022-12-28T13:26:36.216Z,10.40
2022-12-28T13:30:39.912Z,10.37
2022-12-28T13:34:51.001Z,10.24
2022-12-28T13:39:13.582Z,10.01
2022-12-28T13:44:08.830Z,9.79
2022-12-28T13:48:12.506Z,9.56
2022-12-28T13:52:22.304Z,9.35
2022-12-28T13:56:29.705Z,9.19
2022-12-28T14:00:34.989Z,9.02
2022-12-28T14:04:54.084Z,8.89
2022-12-28T14:09:03.838Z,8.78
2022-12-28T14:13:11.758Z,8.72
2022-12-28T14:17:15.825Z,8.65
2022-12-28T14:21:34.185Z,8.60
2022-12-28T14:25:43.381Z,8.56
2022-12-28T14:29:48.228Z,8.54
2022-12-28T14:33:54.216Z,8.53
2022-12-28T14:37:59.366Z,8.50
2022-12-28T14:42:04.129Z,8.43
2022-12-28T14:46:29.406Z,8.32
2022-12-28T14:50:33.096Z,8.15
2022-12-28T14:54:45.419Z,7.95
2022-12-28T14:58:51.637Z,7.67
2022-12-28T15:02:57.496Z,7.52
2022-12-28T15:07:00.549Z,7.27
2022-12-28T15:15:10.373Z,6.84
2022-12-28T15:19:15.014Z,6.61
2022-12-28T15:23:18.135Z,6.37
2022-12-28T15:27:21.208Z,6.15
2022-12-28T15:31:24.566Z,5.95
2022-12-28T15:35:29.562Z,5.78
2022-12-28T15:39:32.735Z,5.63
2022-12-28T15:43:35.808Z,5.48
2022-12-28T15:47:39.001Z,5.36
2022-12-28T15:51:44.734Z,5.25
2022-12-28T15:56:00.036Z,5.06
2022-12-28T16:00:04.169Z,5.02
2022-12-28T16:04:07.536Z,4.90
2022-12-28T16:08:12.278Z,4.84
2022-12-28T16:12:18.456Z,4.78
2022-12-28T16:16:22.670Z,4.74
2022-12-28T16:20:25.866Z,4.69
2022-12-28T16:24:30.653Z,4.66
2022-12-28T16:28:34.071Z,4.62
2022-12-28T16:32:37.575Z,4.59
2022-12-28T16:36:41.723Z,4.59
2022-12-28T16:40:46.540Z,4.59
2022-12-28T16:44:51.141Z,4.59
2022-12-28T16:48:54.281Z,4.57
2022-12-28T16:53:01.159Z,4.54
2022-12-28T16:57:05.736Z,4.49
2022-12-28T17:01:11.245Z,4.42
2022-12-28T17:05:14.880Z,4.38
2022-12-28T17:09:20.338Z,4.34
2022-12-28T17:13:25.054Z,4.33
2022-12-28T17:17:28.529Z,4.31
2022-12-28T17:21:33.196Z,4.30
2022-12-28T17:25:37.719Z,4.30
2022-12-28T17:29:42.458Z,4.30
2022-12-28T17:33:47.057Z,4.27
2022-12-28T17:37:51.037Z,4.23
2022-12-28T17:41:54.322Z,4.19
2022-12-28T17:46:02.489Z,4.15
2022-12-28T17:50:06.589Z,4.10
2022-12-28T17:54:12.243Z,4.06
2022-12-28T17:58:17.092Z,4.00
2022-12-28T18:02:22.191Z,3.96
2022-12-28T18:06:26.132Z,3.90
2022-12-28T18:10:29.393Z,3.86
2022-12-28T18:14:32.573Z,3.82
2022-12-28T18:18:37.570Z,3.80
2022-12-28T18:22:43.433Z,3.76
2022-12-28T18:26:46.700Z,3.75
2022-12-28T18:30:50.363Z,3.73
2022-12-28T18:34:54.792Z,3.69
2022-12-28T18:38:58.140Z,3.68
2022-12-28T18:43:01.303Z,3.60
2022-12-28T18:47:04.747Z,3.49
2022-12-28T18:51:12.078Z,3.39
2022-12-28T18:55:15.712Z,3.28
2022-12-28T18:59:19.017Z,3.20
2022-12-28T19:03:22.576Z,3.14
2022-12-28T19:07:27.488Z,3.10
2022-12-28T19:11:31.291Z,3.05
2022-12-28T19:15:34.677Z,3.04
2022-12-28T19:19:38.083Z,3.01
2022-12-28T19:23:42.615Z,2.98
2022-12-28T19:27:45.932Z,2.97
2022-12-28T19:31:50.398Z,2.97
2022-12-28T19:35:53.685Z,3.01
2022-12-28T19:39:58.249Z,3.07
2022-12-28T19:44:01.808Z,3.16
2022-12-28T19:48:05.296Z,3.25
2022-12-28T19:52:08.538Z,3.37
2022-12-28T19:56:16.648Z,3.51
2022-12-28T20:00:20.231Z,3.63
2022-12-28T20:04:23.498Z,3.75
2022-12-28T20:08:26.981Z,3.86
2022-12-28T20:12:32.164Z,3.97
2022-12-28T20:16:37.302Z,4.07
2022-12-28T20:21:16.787Z,4.17
2022-12-28T20:25:03.922Z,4.25
2022-12-28T20:29:08.508Z,4.29
2022-12-28T20:33:11.783Z,4.34
2022-12-28T20:37:15.236Z,4.40
2022-12-28T20:41:38.061Z,4.46
2022-12-28T20:45:42.907Z,4.53
2022-12-28T20:49:46.500Z,4.57
2022-12-28T20:53:51.347Z,4.56
2022-12-28T20:57:55.314Z,4.57
2022-12-28T21:02:00.236Z,4.54
2022-12-28T21:06:04.663Z,4.51
2022-12-28T21:10:10.551Z,4.47
2022-12-28T21:14:13.934Z,4.42
2022-12-28T21:18:20.328Z,4.37
2022-12-28T21:22:23.491Z,4.30
2022-12-28T21:26:27.022Z,4.23
2022-12-28T21:30:30.572Z,4.16
2022-12-28T21:34:35.462Z,4.10
2022-12-28T21:38:43.552Z,3.97
2022-12-28T21:42:47.588Z,3.96
2022-12-28T21:46:52.591Z,3.88
2022-12-28T21:50:57.356Z,3.83
2022-12-28T21:55:22.340Z,3.82
2022-12-28T21:59:27.495Z,3.82
2022-12-28T22:03:49.059Z,3.81
2022-12-28T22:08:14.804Z,3.82
2022-12-28T22:12:35.418Z,3.79
2022-12-28T22:16:38.896Z,3.72
2022-12-28T22:20:42.511Z,3.70
2022-12-28T22:24:47.209Z,3.70
2022-12-28T22:28:50.359Z,3.67
2022-12-28T22:32:53.808Z,3.65
2022-12-28T22:36:57.242Z,3.62
2022-12-28T22:41:02.363Z,3.57
2022-12-28T22:45:05.974Z,3.52
2022-12-28T22:49:09.535Z,3.48
2022-12-28T22:53:12.939Z,3.46
2022-12-28T22:57:17.798Z,3.43
2022-12-28T23:01:21.873Z,3.41
2022-12-28T23:05:25.232Z,3.39
2022-12-28T23:09:28.502Z,3.37
2022-12-28T23:13:34.662Z,3.35
2022-12-28T23:17:37.978Z,3.28
2022-12-28T23:21:58.571Z,3.23
2022-12-28T23:26:19.434Z,3.14
2022-12-28T23:30:29.819Z,3.10
2022-12-28T23:34:33.210Z,3.07
2022-12-28T23:38:36.399Z,3.06
2022-12-28T23:42:41.415Z,3.07
2022-12-28T23:46:47.529Z,3.07
2022-12-28T23:50:50.771Z,3.06
2022-12-28T23:54:53.806Z,3.04
2022-12-28T23:58:57.072Z,3.05
